createdAt,value
2019-02-02T00:04:17.444Z,1.98
2019-02-02T00:09:19.906Z,1.87
2019-02-02T00:14:23.273Z,2.02
2019-02-02T00:19:26.163Z,2.04
2019-02-02T00:24:29.688Z,1.99
2019-02-02T00:29:32.885Z,1.83
2019-02-02T00:34:36.088Z,1.77
2019-02-02T00:39:39.607Z,1.75
2019-02-02T00:44:42.410Z,1.79
2019-02-02T00:49:45.976Z,1.75
2019-02-02T00:54:48.835Z,1.66
2019-02-02T00:59:51.957Z,1.70
2019-02-02T01:04:55.148Z,1.61
2019-02-02T01:09:57.810Z,1.59
2019-02-02T01:15:00.757Z,1.60
2019-02-02T01:20:04.683Z,1.65
2019-02-02T01:25:08.342Z,1.66
2019-02-02T01:30:12.994Z,1.59
2019-02-02T01:35:16.541Z,1.59
2019-02-02T01:40:20.161Z,1.52
2019-02-02T01:45:24.367Z,1.43
2019-02-02T01:50:28.021Z,1.41
2019-02-02T01:55:31.343Z,1.29
2019-02-02T02:00:34.820Z,1.33
2019-02-02T02:05:39.201Z,1.32
2019-02-02T02:10:42.679Z,1.34
2019-02-02T02:15:46.234Z,1.25
2019-02-02T02:20:49.728Z,1.28
2019-02-02T02:25:52.952Z,1.26
2019-02-02T02:30:55.936Z,1.17
2019-02-02T02:35:59.536Z,1.25
2019-02-02T02:41:02.387Z,1.22
2019-02-02T02:46:05.455Z,1.24
2019-02-02T02:51:08.396Z,1.23
2019-02-02T02:56:11.509Z,1.23
2019-02-02T03:01:15.049Z,1.26
2019-02-02T03:06:18.539Z,1.23
2019-02-02T03:11:21.437Z,1.30
2019-02-02T03:16:24.662Z,1.25
2019-02-02T03:21:27.967Z,1.26
2019-02-02T03:26:31.153Z,1.29
2019-02-02T03:31:34.328Z,1.32
2019-02-02T03:36:37.182Z,1.38
2019-02-02T03:41:40.441Z,1.34
2019-02-02T03:46:43.647Z,1.37
2019-02-02T03:51:46.819Z,1.36
2019-02-02T03:56:49.708Z,1.40
2019-02-02T04:01:52.987Z,1.41
2019-02-02T04:06:56.229Z,1.47
2019-02-02T04:11:59.033Z,1.39
2019-02-02T04:17:13.717Z,1.50
2019-02-02T04:22:18.254Z,1.62
2019-02-02T04:27:21.671Z,1.67
2019-02-02T04:32:24.879Z,1.74
2019-02-02T04:37:28.113Z,1.54
2019-02-02T04:42:31.303Z,1.72
2019-02-02T04:47:34.209Z,1.79
2019-02-02T04:52:37.512Z,1.77
2019-02-02T04:57:40.732Z,1.78
2019-02-02T05:02:44.312Z,1.74
2019-02-02T05:07:47.460Z,1.79
2019-02-02T05:12:50.323Z,1.84
2019-02-02T05:17:53.461Z,1.91
2019-02-02T05:22:55.963Z,1.96
2019-02-02T05:27:59.172Z,2.00
2019-02-02T05:33:02.382Z,1.96
2019-02-02T05:38:05.893Z,1.83
2019-02-02T05:43:08.799Z,1.92
2019-02-02T05:48:12.417Z,1.94
2019-02-02T05:53:15.625Z,1.94
2019-02-02T05:58:18.525Z,1.96
2019-02-02T06:03:21.771Z,1.98
2019-02-02T06:08:24.919Z,2.03
2019-02-02T06:13:27.434Z,2.01
2019-02-02T06:18:30.952Z,2.03
2019-02-02T06:23:34.161Z,2.01
2019-02-02T06:28:38.856Z,2.02
2019-02-02T06:33:42.093Z,2.18
2019-02-02T06:38:45.325Z,2.17
2019-02-02T06:43:47.882Z,2.30
2019-02-02T06:48:51.393Z,2.23
2019-02-02T06:53:54.964Z,2.23
2019-02-02T06:58:57.859Z,2.16
2019-02-02T07:04:01.086Z,2.23
2019-02-02T07:09:07.238Z,2.30
2019-02-02T07:14:10.784Z,2.25
2019-02-02T07:19:16.660Z,2.28
2019-02-02T07:24:19.992Z,2.28
2019-02-02T07:29:24.292Z,2.47
2019-02-02T07:34:27.779Z,2.37
2019-02-02T07:39:31.099Z,2.37
2019-02-02T07:44:34.036Z,2.46
2019-02-02T07:49:37.219Z,2.37
2019-02-02T07:54:40.240Z,2.47
2019-02-02T07:59:43.435Z,2.47
2019-02-02T08:04:45.964Z,2.54
2019-02-02T08:09:48.850Z,2.61
2019-02-02T08:14:54.033Z,2.68
2019-02-02T08:19:57.398Z,2.60
2019-02-02T08:25:01.044Z,2.67
2019-02-02T08:30:05.214Z,2.65
2019-02-02T08:35:08.194Z,2.81
2019-02-02T08:40:13.776Z,2.85
2019-02-02T08:45:17.345Z,2.85
2019-02-02T08:50:28.446Z,2.86
2019-02-02T08:55:31.673Z,2.88
2019-02-02T09:00:35.423Z,2.93
2019-02-02T09:05:38.571Z,2.90
2019-02-02T09:10:41.799Z,2.92
2019-02-02T09:15:44.702Z,2.88
2019-02-02T09:20:48.340Z,2.94
2019-02-02T09:25:51.555Z,2.97
2019-02-02T09:30:54.781Z,3.08
2019-02-02T09:35:57.994Z,3.07
2019-02-02T09:41:00.872Z,3.11
2019-02-02T09:46:04.759Z,3.17
2019-02-02T09:51:07.600Z,3.25
2019-02-02T09:56:11.477Z,3.20
2019-02-02T10:01:14.006Z,3.23
2019-02-02T10:06:17.225Z,3.22
2019-02-02T10:11:20.802Z,3.28
2019-02-02T10:16:24.346Z,3.34
2019-02-02T10:21:26.908Z,3.41
2019-02-02T10:26:30.105Z,3.53
2019-02-02T10:31:39.763Z,3.59
2019-02-02T10:36:38.372Z,3.65
2019-02-02T10:41:43.335Z,3.62
2019-02-02T10:46:46.593Z,3.56
2019-02-02T10:51:49.890Z,3.60
2019-02-02T10:56:53.212Z,3.59
2019-02-02T11:01:56.258Z,3.51
2019-02-02T11:06:59.629Z,3.58
2019-02-02T11:12:02.807Z,3.54
2019-02-02T11:17:06.079Z,3.58
2019-02-02T11:22:10.707Z,3.59
2019-02-02T11:27:14.284Z,3.46
2019-02-02T11:32:17.726Z,3.55
2019-02-02T11:37:20.701Z,3.46
2019-02-02T11:42:23.653Z,3.42
2019-02-02T11:47:26.944Z,3.37
2019-02-02T11:52:30.525Z,3.53
2019-02-02T11:57:33.779Z,3.54
2019-02-02T12:02:48.846Z,3.59
2019-02-02T12:07:42.611Z,3.80
2019-02-02T12:12:45.837Z,3.68
2019-02-02T12:17:49.382Z,3.39
2019-02-02T12:22:52.743Z,3.31
2019-02-02T12:27:56.414Z,3.25
2019-02-02T12:33:03.160Z,3.34
2019-02-02T12:38:06.317Z,3.28
2019-02-02T12:43:11.615Z,3.12
2019-02-02T12:48:14.881Z,3.19
2019-02-02T12:53:18.369Z,3.25
2019-02-02T12:58:21.696Z,3.38
2019-02-02T13:03:25.012Z,3.20
2019-02-02T13:08:27.928Z,3.24
2019-02-02T13:13:31.107Z,3.21
2019-02-02T13:18:34.049Z,3.29
2019-02-02T13:23:37.715Z,3.25
2019-02-02T13:28:40.979Z,3.27
2019-02-02T13:33:44.281Z,3.20
2019-02-02T13:38:47.603Z,3.25
2019-02-02T13:43:50.162Z,3.28
2019-02-02T13:48:53.785Z,3.27
2019-02-02T13:53:57.435Z,3.23
2019-02-02T13:59:00.173Z,3.29
2019-02-02T14:04:02.384Z,3.24
2019-02-02T14:09:08.091Z,3.28
2019-02-02T14:14:11.101Z,3.41
2019-02-02T14:19:14.416Z,3.44
2019-02-02T14:24:17.750Z,3.34
2019-02-02T14:29:21.026Z,3.37
2019-02-02T14:34:23.950Z,3.43
2019-02-02T14:39:28.798Z,3.36
2019-02-02T14:44:32.094Z,3.32
2019-02-02T14:49:35.361Z,3.34
2019-02-02T14:54:38.964Z,3.36
2019-02-02T14:59:42.036Z,3.37
2019-02-02T15:04:45.797Z,3.31
2019-02-02T15:09:49.220Z,3.24
2019-02-02T15:14:52.476Z,3.25
2019-02-02T15:19:56.695Z,3.21
2019-02-02T15:24:59.720Z,3.19
2019-02-02T15:30:03.996Z,3.38
2019-02-02T15:35:07.078Z,3.23
2019-02-02T15:40:12.331Z,3.23
2019-02-02T15:45:17.162Z,3.23
2019-02-02T15:50:21.771Z,3.21
2019-02-02T15:55:25.399Z,3.17
2019-02-02T16:00:30.523Z,3.13
2019-02-02T16:05:34.988Z,3.10
2019-02-02T16:10:38.314Z,3.10
2019-02-02T16:15:41.540Z,3.09
2019-02-02T16:20:44.604Z,3.05
2019-02-02T16:25:50.140Z,2.98
2019-02-02T16:30:52.973Z,2.86
2019-02-02T16:35:56.343Z,2.93
2019-02-02T16:40:59.548Z,2.93
2019-02-02T16:46:03.754Z,3.05
2019-02-02T16:51:11.020Z,3.14
2019-02-02T16:56:17.126Z,3.65
2019-02-02T17:01:20.366Z,3.23
2019-02-02T17:06:23.721Z,3.11
2019-02-02T17:11:27.070Z,3.02
2019-02-02T17:16:29.674Z,2.99
2019-02-02T17:21:32.594Z,2.91
2019-02-02T17:26:35.526Z,2.93
2019-02-02T17:31:38.398Z,2.95
2019-02-02T17:36:42.677Z,3.14
2019-02-02T17:41:46.365Z,3.07
2019-02-02T17:46:49.937Z,3.02
2019-02-02T17:51:53.506Z,2.99
2019-02-02T17:56:57.854Z,2.97
2019-02-02T18:02:01.454Z,3.06
2019-02-02T18:07:04.930Z,3.01
2019-02-02T18:12:07.779Z,2.99
2019-02-02T18:17:11.227Z,2.95
2019-02-02T18:22:14.600Z,2.95
2019-02-02T18:27:17.903Z,2.93
2019-02-02T18:32:21.547Z,2.94
2019-02-02T18:37:24.887Z,2.95
2019-02-02T18:42:28.080Z,3.07
2019-02-02T18:47:31.720Z,3.09
2019-02-02T18:52:35.352Z,3.09
2019-02-02T18:57:38.924Z,3.04
2019-02-02T19:02:42.547Z,3.05
2019-02-02T19:07:46.056Z,2.89
2019-02-02T19:12:49.395Z,3.00
2019-02-02T19:17:53.135Z,2.95
2019-02-02T19:22:57.348Z,2.87
2019-02-02T19:28:00.581Z,2.77
2019-02-02T19:33:06.339Z,2.67
2019-02-02T19:38:10.130Z,2.72
2019-02-02T19:43:14.199Z,2.58
2019-02-02T19:48:18.601Z,2.76
2019-02-02T19:53:23.440Z,2.64
2019-02-02T19:58:28.117Z,2.59
2019-02-02T20:03:31.788Z,2.73
2019-02-02T20:08:36.075Z,2.64
2019-02-02T20:13:42.658Z,2.69
2019-02-02T20:18:47.105Z,2.57
2019-02-02T20:23:52.643Z,2.65
2019-02-02T20:28:57.640Z,2.62
2019-02-02T20:34:02.578Z,2.59
2019-02-02T20:39:08.023Z,2.64
2019-02-02T20:44:12.882Z,2.63
2019-02-02T20:49:16.256Z,2.53
2019-02-02T20:54:20.573Z,2.50
2019-02-02T20:59:25.231Z,2.24
2019-02-02T21:04:29.329Z,2.29
2019-02-02T21:09:34.441Z,2.33
2019-02-02T21:14:38.677Z,2.44
2019-02-02T21:19:42.340Z,2.21
2019-02-02T21:24:45.868Z,2.28
2019-02-02T21:29:49.971Z,2.37
2019-02-02T21:34:53.316Z,2.33
2019-02-02T21:39:56.570Z,4.45
2019-02-02T21:45:00.460Z,5.45
2019-02-02T21:50:05.107Z,3.32
2019-02-02T21:55:10.353Z,2.83
2019-02-02T22:00:16.802Z,2.72
2019-02-02T22:05:19.923Z,2.42
2019-02-02T22:10:23.402Z,2.39
2019-02-02T22:15:26.874Z,2.32
2019-02-02T22:20:30.121Z,2.25
2019-02-02T22:25:33.540Z,2.19
2019-02-02T22:30:37.626Z,2.38
2019-02-02T22:35:40.944Z,2.24
2019-02-02T22:40:44.517Z,2.31
2019-02-02T22:45:47.748Z,2.37
2019-02-02T22:50:50.970Z,2.41
2019-02-02T22:55:53.935Z,2.31
2019-02-02T23:01:10.569Z,2.26
2019-02-02T23:06:50.259Z,2.30
2019-02-02T23:12:36.856Z,2.35
2019-02-02T23:17:40.375Z,2.23
2019-02-02T23:22:44.589Z,2.35
2019-02-02T23:27:47.820Z,2.28
2019-02-02T23:32:51.794Z,2.18
2019-02-02T23:37:55.597Z,2.28
2019-02-02T23:42:58.851Z,2.42
2019-02-02T23:48:02.160Z,2.27
2019-02-02T23:53:05.478Z,2.38
2019-02-02T23:58:09.078Z,2.25
